createdAt,value
2022-09-10T00:02:11.271Z,15.16
2022-09-10T00:05:13.893Z,15.21
2022-09-10T00:08:17.912Z,15.14
2022-09-10T00:11:22.057Z,15.14
2022-09-10T00:14:25.259Z,15.13
2022-09-10T00:17:29.181Z,15.19
2022-09-10T00:20:31.715Z,15.12
2022-09-10T00:23:34.321Z,15.10
2022-09-10T00:26:39.620Z,14.92
2022-09-10T00:29:42.326Z,15.06
2022-09-10T00:32:49.630Z,15.02
2022-09-10T00:35:52.313Z,15.14
2022-09-10T00:38:57.767Z,15.12
2022-09-10T00:42:00.272Z,15.24
2022-09-10T00:45:04.590Z,15.26
2022-09-10T00:48:15.269Z,15.32
2022-09-10T00:51:17.837Z,15.44
2022-09-10T00:54:22.011Z,15.52
2022-09-10T00:57:27.030Z,15.56
2022-09-10T01:00:29.470Z,15.60
2022-09-10T01:03:33.584Z,15.59
2022-09-10T01:06:36.091Z,15.60
2022-09-10T01:09:39.461Z,15.60
2022-09-10T01:13:13.721Z,15.56
2022-09-10T01:16:23.004Z,15.56
2022-09-10T01:19:58.995Z,15.64
2022-09-10T01:23:17.489Z,15.70
2022-09-10T01:26:28.928Z,15.80
2022-09-10T01:29:36.837Z,15.81
2022-09-10T01:32:52.649Z,15.69
2022-09-10T01:35:58.486Z,15.61
2022-09-10T01:39:01.366Z,15.62
2022-09-10T01:42:04.021Z,15.56
2022-09-10T01:45:10.945Z,15.66
2022-09-10T01:48:40.996Z,15.73
2022-09-10T01:51:54.340Z,15.66
2022-09-10T01:55:08.698Z,15.58
2022-09-10T01:58:19.582Z,15.43
2022-09-10T02:01:27.023Z,15.38
2022-09-10T02:04:29.967Z,15.45
2022-09-10T02:07:33.059Z,15.44
2022-09-10T02:10:35.620Z,15.43
2022-09-10T02:13:38.743Z,15.50
2022-09-10T02:16:46.933Z,15.46
2022-09-10T02:19:51.673Z,15.49
2022-09-10T02:22:58.450Z,15.48
2022-09-10T02:26:00.978Z,15.38
2022-09-10T02:29:03.605Z,15.26
2022-09-10T02:32:08.253Z,15.10
2022-09-10T02:35:10.744Z,15.02
2022-09-10T02:38:13.270Z,15.09
2022-09-10T02:41:15.777Z,15.06
2022-09-10T02:44:18.322Z,15.06
2022-09-10T02:47:22.168Z,15.12
2022-09-10T02:50:25.131Z,15.25
2022-09-10T02:53:27.687Z,15.27
2022-09-10T02:56:30.159Z,15.33
2022-09-10T02:59:32.918Z,15.39
2022-09-10T03:02:36.964Z,15.24
2022-09-10T03:05:39.983Z,15.21
2022-09-10T03:08:42.586Z,15.32
2022-09-10T03:11:45.113Z,15.24
2022-09-10T03:14:48.644Z,15.24
2022-09-10T03:17:52.483Z,15.24
2022-09-10T03:20:55.148Z,15.27
2022-09-10T03:23:58.299Z,15.24
2022-09-10T03:27:01.422Z,15.20
2022-09-10T03:30:04.172Z,15.22
2022-09-10T03:33:08.128Z,15.22
2022-09-10T03:36:13.206Z,15.18
2022-09-10T03:39:16.246Z,15.14
2022-09-10T03:42:18.769Z,15.06
2022-09-10T03:45:21.327Z,15.02
2022-09-10T03:48:25.277Z,14.91
2022-09-10T03:51:28.920Z,14.97
2022-09-10T03:54:31.385Z,14.90
2022-09-10T03:57:33.935Z,14.89
2022-09-10T04:00:36.658Z,14.93
2022-09-10T04:03:42.130Z,14.98
2022-09-10T04:06:45.263Z,15.08
2022-09-10T04:09:47.880Z,15.14
2022-09-10T04:12:53.279Z,15.17
2022-09-10T04:15:56.620Z,15.15
2022-09-10T04:19:00.647Z,15.13
2022-09-10T04:22:03.248Z,15.15
2022-09-10T04:25:06.401Z,15.08
2022-09-10T04:28:09.481Z,14.92
2022-09-10T04:31:11.948Z,14.80
2022-09-10T04:34:16.016Z,14.74
2022-09-10T04:37:19.518Z,14.85
2022-09-10T04:40:22.189Z,14.94
2022-09-10T04:43:25.480Z,15.05
2022-09-10T04:46:27.981Z,15.11
2022-09-10T04:49:31.902Z,15.11
2022-09-10T04:52:34.713Z,15.13
2022-09-10T04:55:37.847Z,15.21
2022-09-10T04:58:41.250Z,15.32
2022-09-10T05:01:44.171Z,15.36
2022-09-10T05:04:48.136Z,15.41
2022-09-10T05:07:50.804Z,15.46
2022-09-10T05:10:53.371Z,15.50
2022-09-10T05:13:56.085Z,15.52
2022-09-10T05:16:58.698Z,15.53
2022-09-10T05:20:04.148Z,15.59
2022-09-10T05:23:06.639Z,15.64
2022-09-10T05:26:10.093Z,15.69
2022-09-10T05:29:14.198Z,15.68
2022-09-10T05:32:16.682Z,15.72
2022-09-10T05:35:20.931Z,15.78
2022-09-10T05:38:24.730Z,15.75
2022-09-10T05:41:28.111Z,15.79
2022-09-10T05:44:30.487Z,15.85
2022-09-10T05:47:34.822Z,15.90
2022-09-10T05:50:39.288Z,15.92
2022-09-10T05:53:42.374Z,15.94
2022-09-10T05:56:44.900Z,15.98
2022-09-10T05:59:47.512Z,16.06
2022-09-10T06:02:51.094Z,16.09
2022-09-10T06:05:55.659Z,16.13
2022-09-10T06:08:58.319Z,16.05
2022-09-10T06:12:00.945Z,16.07
2022-09-10T06:15:04.241Z,16.11
2022-09-10T06:18:06.800Z,16.07
2022-09-10T06:21:13.975Z,16.17
2022-09-10T06:24:16.728Z,16.34
2022-09-10T06:27:19.156Z,16.50
2022-09-10T06:30:22.159Z,16.79
2022-09-10T06:33:24.878Z,16.86
2022-09-10T06:36:29.430Z,16.97
2022-09-10T06:39:32.246Z,16.99
2022-09-10T06:42:34.926Z,16.96
2022-09-10T06:45:40.336Z,17.18
2022-09-10T06:48:47.881Z,17.37
2022-09-10T06:51:52.349Z,17.37
2022-09-10T06:54:54.835Z,17.64
2022-09-10T06:57:57.525Z,17.98
2022-09-10T07:01:00.181Z,18.13
2022-09-10T07:04:06.225Z,18.19
2022-09-10T07:07:10.181Z,18.31
2022-09-10T07:10:12.842Z,18.06
2022-09-10T07:13:15.472Z,18.07
2022-09-10T07:16:18.937Z,18.23
2022-09-10T07:19:21.503Z,18.19
2022-09-10T07:22:25.427Z,18.22
2022-09-10T07:25:28.276Z,18.42
2022-09-10T07:28:32.005Z,18.36
2022-09-10T07:31:37.174Z,18.50
2022-09-10T07:34:39.710Z,18.70
2022-09-10T07:37:46.295Z,18.53
2022-09-10T07:40:49.112Z,18.38
2022-09-10T07:43:54.947Z,18.55
2022-09-10T07:46:57.499Z,18.81
2022-09-10T07:50:00.183Z,19.03
2022-09-10T07:53:04.053Z,19.17
2022-09-10T07:56:08.917Z,19.13
2022-09-10T07:59:11.528Z,19.19
2022-09-10T08:02:16.298Z,19.25
2022-09-10T08:05:19.063Z,19.06
2022-09-10T08:08:29.725Z,19.37
2022-09-10T08:11:32.899Z,19.59
2022-09-10T08:14:38.007Z,19.88
2022-09-10T08:17:40.659Z,19.70
2022-09-10T08:20:43.207Z,19.25
2022-09-10T08:23:51.323Z,19.31
2022-09-10T08:26:54.539Z,19.47
2022-09-10T08:29:57.949Z,19.72
2022-09-10T08:33:00.402Z,20.39
2022-09-10T08:36:04.788Z,20.59
2022-09-10T08:39:08.912Z,20.53
2022-09-10T08:42:16.746Z,21.09
2022-09-10T08:45:22.315Z,21.58
2022-09-10T08:48:25.843Z,20.97
2022-09-10T08:51:30.233Z,21.14
2022-09-10T08:54:37.505Z,21.06
2022-09-10T08:57:45.094Z,21.27
2022-09-10T09:00:48.130Z,21.27
2022-09-10T09:03:53.655Z,20.91
2022-09-10T09:06:59.440Z,21.50
2022-09-10T09:10:04.779Z,22.20
2022-09-10T09:13:33.106Z,22.05
2022-09-10T09:16:47.433Z,21.54
2022-09-10T09:19:55.205Z,21.31
2022-09-10T09:23:04.857Z,21.07
2022-09-10T09:26:12.418Z,20.62
2022-09-10T09:29:17.398Z,21.10
2022-09-10T09:32:21.559Z,21.27
2022-09-10T09:35:28.541Z,21.32
2022-09-10T09:38:33.813Z,21.88
2022-09-10T09:41:43.518Z,22.02
2022-09-10T09:44:52.812Z,21.51
2022-09-10T09:48:00.009Z,21.28
2022-09-10T09:51:04.376Z,21.37
2022-09-10T09:57:33.512Z,21.38
2022-09-10T10:00:38.052Z,21.33
2022-09-10T10:03:48.431Z,21.54
2022-09-10T10:06:55.804Z,22.26
2022-09-10T10:10:01.080Z,22.18
2022-09-10T10:13:05.466Z,22.06
2022-09-10T10:16:19.263Z,21.55
2022-09-10T10:19:35.235Z,21.25
2022-09-10T10:22:38.901Z,21.51
2022-09-10T10:25:41.739Z,21.77
2022-09-10T10:28:48.062Z,21.28
2022-09-10T10:31:51.498Z,22.00
2022-09-10T10:34:57.983Z,22.16
2022-09-10T10:38:25.894Z,21.57
2022-09-10T10:41:52.368Z,21.37
2022-09-10T10:45:10.499Z,21.52
2022-09-10T10:48:18.061Z,21.95
2022-09-10T10:51:25.570Z,22.78
2022-09-10T10:54:40.329Z,23.13
2022-09-10T10:58:01.960Z,22.39
2022-09-10T11:01:07.607Z,22.79
2022-09-10T11:04:23.722Z,22.21
2022-09-10T11:07:30.727Z,21.82
2022-09-10T11:10:36.130Z,22.77
2022-09-10T11:13:42.252Z,22.61
2022-09-10T11:16:49.125Z,21.78
2022-09-10T11:20:26.719Z,21.51
2022-09-10T11:23:29.598Z,22.02
2022-09-10T11:26:36.394Z,22.87
2022-09-10T11:29:42.560Z,22.66
2022-09-10T11:32:48.067Z,23.22
2022-09-10T11:35:56.320Z,23.50
2022-09-10T11:39:06.414Z,22.41
2022-09-10T11:42:16.197Z,22.51
2022-09-10T11:45:21.918Z,22.05
2022-09-10T11:48:30.249Z,21.47
2022-09-10T11:51:34.829Z,21.28
2022-09-10T11:54:38.461Z,21.13
2022-09-10T11:57:48.346Z,21.15
2022-09-10T12:00:57.115Z,20.92
2022-09-10T12:04:25.674Z,20.61
2022-09-10T12:07:44.418Z,21.84
2022-09-10T12:11:04.556Z,22.31
2022-09-10T12:14:08.381Z,22.68
2022-09-10T12:17:15.744Z,22.34
2022-09-10T12:20:21.845Z,21.89
2022-09-10T12:23:27.217Z,21.82
2022-09-10T12:26:29.901Z,21.57
2022-09-10T12:29:34.948Z,22.27
2022-09-10T12:32:37.658Z,22.81
2022-09-10T12:35:47.342Z,23.38
2022-09-10T12:38:51.774Z,24.50
2022-09-10T12:42:23.630Z,24.98
2022-09-10T12:46:00.637Z,24.70
2022-09-10T12:49:11.448Z,24.24
2022-09-10T12:52:21.291Z,23.13
2022-09-10T12:55:36.178Z,22.92
2022-09-10T12:59:03.565Z,22.59
2022-09-10T13:02:20.000Z,22.20
2022-09-10T13:05:27.268Z,21.44
2022-09-10T13:08:33.534Z,21.38
2022-09-10T13:11:37.278Z,22.35
2022-09-10T13:14:40.971Z,25.95
2022-09-10T13:18:13.004Z,24.97
2022-09-10T13:21:52.282Z,24.18
2022-09-10T13:25:23.945Z,23.40
2022-09-10T13:29:01.903Z,23.21
2022-09-10T13:32:08.677Z,22.66
2022-09-10T13:35:48.750Z,22.59
2022-09-10T13:39:25.024Z,23.10
2022-09-10T13:42:39.060Z,23.32
2022-09-10T13:45:48.334Z,22.64
2022-09-10T13:48:54.484Z,22.28
2022-09-10T13:51:58.520Z,21.88
2022-09-10T13:55:02.824Z,21.78
2022-09-10T13:58:10.359Z,21.87
2022-09-10T14:01:12.942Z,21.44
2022-09-10T14:04:27.261Z,21.04
2022-09-10T14:07:31.392Z,20.64
2022-09-10T14:10:38.602Z,20.18
2022-09-10T14:13:46.013Z,20.03
2022-09-10T14:16:51.474Z,18.81
2022-09-10T14:19:57.897Z,18.27
2022-09-10T14:23:03.132Z,17.62
2022-09-10T14:26:13.605Z,17.53
2022-09-10T14:29:25.824Z,17.51
2022-09-10T14:32:31.636Z,17.74
2022-09-10T14:35:39.121Z,18.61
2022-09-10T14:38:42.423Z,19.03
2022-09-10T14:41:44.904Z,19.03
2022-09-10T14:44:48.853Z,19.51
2022-09-10T14:47:54.221Z,20.15
2022-09-10T14:51:10.149Z,23.55
2022-09-10T14:54:12.814Z,27.03
2022-09-10T14:57:24.580Z,32.83
2022-09-10T15:00:28.641Z,33.74
2022-09-10T15:03:31.263Z,31.13
2022-09-10T15:06:33.748Z,32.10
2022-09-10T15:09:36.441Z,31.70
2022-09-10T15:12:40.468Z,32.86
2022-09-10T15:15:45.726Z,32.25
2022-09-10T15:18:49.032Z,26.95
2022-09-10T15:21:51.956Z,25.89
2022-09-10T15:25:11.479Z,24.00
2022-09-10T15:28:14.340Z,22.53
2022-09-10T15:31:18.560Z,21.31
2022-09-10T15:34:21.127Z,20.71
2022-09-10T15:37:24.421Z,19.41
2022-09-10T15:40:27.024Z,17.98
2022-09-10T15:43:29.984Z,17.35
2022-09-10T15:46:35.609Z,17.06
2022-09-10T15:49:38.199Z,16.77
2022-09-10T15:52:41.061Z,16.43
2022-09-10T15:55:44.060Z,16.02
2022-09-10T15:58:49.414Z,15.98
2022-09-10T16:01:53.345Z,16.31
2022-09-10T16:04:55.884Z,16.69
2022-09-10T16:07:58.454Z,17.18
2022-09-10T16:11:02.086Z,16.92
2022-09-10T16:14:07.868Z,17.18
2022-09-10T16:17:11.816Z,17.66
2022-09-10T16:20:14.293Z,17.92
2022-09-10T16:23:17.161Z,19.26
2022-09-10T16:26:22.983Z,25.42
2022-09-10T16:29:25.543Z,26.96
2022-09-10T16:32:30.502Z,23.24
2022-09-10T16:35:35.649Z,21.28
2022-09-10T16:38:38.223Z,20.50
2022-09-10T16:41:41.795Z,21.15
2022-09-10T16:44:44.334Z,21.00
2022-09-10T16:47:48.136Z,19.82
2022-09-10T16:50:50.953Z,19.01
2022-09-10T16:53:56.745Z,18.63
2022-09-10T16:56:59.244Z,18.22
2022-09-10T17:00:01.896Z,18.11
2022-09-10T17:03:06.181Z,18.10
2022-09-10T17:06:14.352Z,18.22
2022-09-10T17:09:17.008Z,18.18
2022-09-10T17:12:19.567Z,17.97
2022-09-10T17:15:22.077Z,17.81
2022-09-10T17:18:25.836Z,17.80
2022-09-10T17:21:31.462Z,17.75
2022-09-10T17:24:33.953Z,17.72
2022-09-10T17:27:36.474Z,17.64
2022-09-10T17:30:39.108Z,17.56
2022-09-10T17:33:42.957Z,17.45
2022-09-10T17:36:47.374Z,17.38
2022-09-10T17:39:51.594Z,17.27
2022-09-10T17:42:55.038Z,17.18
2022-09-10T17:45:58.164Z,17.15
2022-09-10T17:49:02.113Z,17.05
2022-09-10T17:52:05.410Z,16.96
2022-09-10T17:55:08.402Z,16.93
2022-09-10T17:58:11.709Z,16.92
2022-09-10T18:01:23.127Z,16.92
2022-09-10T18:04:28.015Z,16.92
2022-09-10T18:07:31.173Z,16.90
2022-09-10T18:10:33.894Z,16.89
2022-09-10T18:13:37.591Z,16.86
2022-09-10T18:16:40.239Z,16.84
2022-09-10T18:19:44.211Z,16.82
2022-09-10T18:22:47.214Z,16.83
2022-09-10T18:25:50.338Z,16.79
2022-09-10T18:28:55.408Z,16.85
2022-09-10T18:32:00.697Z,16.81
2022-09-10T18:35:06.153Z,16.76
2022-09-10T18:38:08.692Z,16.71
2022-09-10T18:41:22.452Z,16.69
2022-09-10T18:44:27.455Z,16.72
2022-09-10T18:47:44.026Z,16.75
2022-09-10T18:50:49.140Z,16.74
2022-09-10T18:53:53.973Z,16.75
2022-09-10T18:56:57.418Z,16.76
2022-09-10T18:59:59.722Z,16.74
2022-09-10T19:03:02.438Z,16.70
2022-09-10T19:06:09.095Z,16.76
2022-09-10T19:09:13.237Z,16.72
2022-09-10T19:12:19.129Z,16.67
2022-09-10T19:15:22.109Z,16.65
2022-09-10T19:18:24.686Z,16.65
2022-09-10T19:21:32.269Z,16.61
2022-09-10T19:27:58.286Z,16.73
2022-09-10T19:31:02.992Z,16.76
2022-09-10T19:34:07.340Z,16.83
2022-09-10T19:37:11.389Z,16.79
2022-09-10T19:40:14.031Z,16.76
2022-09-10T19:43:16.925Z,16.82
2022-09-10T19:46:21.449Z,16.83
2022-09-10T19:49:24.000Z,16.81
2022-09-10T19:52:27.833Z,16.79
2022-09-10T19:55:30.340Z,16.79
2022-09-10T19:58:33.035Z,16.80
2022-09-10T20:01:38.087Z,16.78
2022-09-10T20:04:40.708Z,16.77
2022-09-10T20:07:44.650Z,16.74
2022-09-10T20:10:51.738Z,16.83
2022-09-10T20:13:55.953Z,16.79
2022-09-10T20:16:58.515Z,16.80
2022-09-10T20:20:01.661Z,16.78
2022-09-10T20:23:06.052Z,16.78
2022-09-10T20:26:11.145Z,16.75
2022-09-10T20:29:15.929Z,16.79
2022-09-10T20:32:18.512Z,16.72
2022-09-10T20:35:21.136Z,16.76
2022-09-10T20:38:25.706Z,16.75
2022-09-10T20:41:30.423Z,16.67
2022-09-10T20:44:33.443Z,16.69
2022-09-10T20:47:42.992Z,16.61
2022-09-10T20:50:53.596Z,16.65
2022-09-10T20:53:57.547Z,16.67
2022-09-10T20:57:00.082Z,16.68
2022-09-10T21:00:03.075Z,16.67
2022-09-10T21:03:05.660Z,16.66
2022-09-10T21:06:09.194Z,16.74
2022-09-10T21:09:13.504Z,16.69
2022-09-10T21:12:16.054Z,16.68
2022-09-10T21:15:18.719Z,16.69
2022-09-10T21:18:21.237Z,16.70
2022-09-10T21:21:26.930Z,16.74
2022-09-10T21:24:30.884Z,16.73
2022-09-10T21:27:33.657Z,16.67
2022-09-10T21:30:36.393Z,16.68
2022-09-10T21:33:39.599Z,16.70
2022-09-10T21:36:43.591Z,16.71
2022-09-10T21:39:47.929Z,16.67
2022-09-10T21:42:51.317Z,16.63
2022-09-10T21:45:54.077Z,16.55
2022-09-10T21:48:56.913Z,16.52
2022-09-10T21:51:59.498Z,16.47
2022-09-10T21:55:03.537Z,16.59
2022-09-10T21:58:06.237Z,16.56
2022-09-10T22:01:12.977Z,16.51
2022-09-10T22:04:21.467Z,16.56
2022-09-10T22:07:28.687Z,16.41
2022-09-10T22:10:32.597Z,15.85
2022-09-10T22:13:37.737Z,15.54
2022-09-10T22:16:40.461Z,15.49
2022-09-10T22:19:43.684Z,15.43
2022-09-10T22:22:46.221Z,15.51
2022-09-10T22:25:50.054Z,15.55
2022-09-10T22:28:54.153Z,15.60
2022-09-10T22:31:56.815Z,15.60
2022-09-10T22:34:59.347Z,15.74
2022-09-10T22:38:01.870Z,15.89
2022-09-10T22:41:07.804Z,15.91
2022-09-10T22:44:10.952Z,15.63
2022-09-10T22:47:13.686Z,15.39
2022-09-10T22:50:16.614Z,15.29
2022-09-10T22:53:19.182Z,15.23
2022-09-10T22:56:26.023Z,15.25
2022-09-10T22:59:28.944Z,15.26
2022-09-10T23:02:31.690Z,15.28
2022-09-10T23:05:35.274Z,15.30
2022-09-10T23:08:38.037Z,15.41
2022-09-10T23:11:42.610Z,15.44
2022-09-10T23:14:45.202Z,15.49
2022-09-10T23:17:47.707Z,15.51
2022-09-10T23:20:50.839Z,15.65
2022-09-10T23:23:55.017Z,15.67
2022-09-10T23:26:58.844Z,15.67
2022-09-10T23:30:02.336Z,15.70
2022-09-10T23:33:04.766Z,15.75
2022-09-10T23:36:07.866Z,15.73
2022-09-10T23:39:13.828Z,15.80
2022-09-10T23:42:17.693Z,15.81
2022-09-10T23:45:20.193Z,15.91
2022-09-10T23:48:23.947Z,15.95
2022-09-10T23:51:26.548Z,15.94
2022-09-10T23:54:30.212Z,16.02
2022-09-10T23:57:34.005Z,16.03
